Time;durP1;ratioP1;P1;durP2;ratioP2;P2;SDS_P1;SDS_P2;PMS_P1;PMS_P2;Temp;Humidity;BMP_temperature;BMP_pressure;BME280_temperature;BME280_humidity;BME280_pressure;Samples;Min_cycle;Max_cycle;Signal;HPM_P1;HPM_P2
2022/09/23 00:01:03;;;;;;;2.78;1.52;;;21.70;41.80;;;;;;5040213;28;20485;-48
2022/09/23 00:03:30;;;;;;;1.60;1.10;;;21.70;41.80;;;;;;5033850;28;20109;-50
2022/09/23 00:06:02;;;;;;;2.65;1.13;;;21.70;41.90;;;;;;5043192;28;20029;-52
2022/09/23 00:08:28;;;;;;;1.65;1.20;;;21.70;42.00;;;;;;5042484;28;20041;-51
2022/09/23 00:10:55;;;;;;;2.20;1.38;;;21.70;42.00;;;;;;5048742;28;20049;-51
2022/09/23 00:13:23;;;;;;;2.95;1.50;;;21.70;42.00;;;;;;5042316;28;20033;-48
2022/09/23 00:15:49;;;;;;;1.63;1.15;;;21.70;42.00;;;;;;5045279;28;20112;-51
2022/09/23 00:18:16;;;;;;;1.70;1.20;;;21.70;42.00;;;;;;5045119;28;20060;-52
2022/09/23 00:20:43;;;;;;;1.77;1.40;;;21.70;42.00;;;;;;5047924;28;20029;-50
2022/09/23 00:23:09;;;;;;;2.17;1.42;;;21.70;42.00;;;;;;5045744;28;20079;-47
2022/09/23 00:25:34;;;;;;;1.88;1.27;;;21.60;42.00;;;;;;5047889;28;20021;-51
2022/09/23 00:28:02;;;;;;;1.25;1.10;;;21.70;42.00;;;;;;5049118;28;20115;-49
2022/09/23 00:30:28;;;;;;;4.05;1.30;;;21.60;42.00;;;;;;5044820;28;20025;-46
2022/09/23 00:32:55;;;;;;;1.95;1.20;;;21.60;42.00;;;;;;5046978;28;20028;-45
2022/09/23 00:35:21;;;;;;;4.32;1.30;;;21.60;42.10;;;;;;5043404;28;20045;-45
2022/09/23 00:37:47;;;;;;;1.58;1.10;;;21.60;42.10;;;;;;5045834;28;20102;-47
2022/09/23 00:40:13;;;;;;;1.23;1.10;;;21.70;42.10;;;;;;5044189;28;20029;-48
2022/09/23 00:42:48;;;;;;;1.35;1.10;;;21.70;42.10;;;;;;5048497;28;20436;-47
2022/09/23 00:45:15;;;;;;;1.80;1.13;;;21.60;42.10;;;;;;5045989;28;20125;-48
2022/09/23 00:47:52;;;;;;;1.40;1.13;;;21.60;42.10;;;;;;5045581;28;20443;-49
2022/09/23 00:50:26;;;;;;;4.10;1.30;;;21.60;42.10;;;;;;5047100;28;20121;-47
2022/09/23 00:52:56;;;;;;;2.30;1.33;;;21.60;42.10;;;;;;5048328;28;20037;-49
2022/09/23 00:55:26;;;;;;;1.25;1.10;;;21.60;42.10;;;;;;5047689;28;20029;-47
2022/09/23 00:57:56;;;;;;;1.77;1.20;;;21.60;42.10;;;;;;5041757;28;20033;-49
2022/09/23 01:00:23;;;;;;;1.73;1.17;;;21.60;42.10;;;;;;5044363;28;20033;-50
2022/09/23 01:02:49;;;;;;;1.75;1.10;;;21.60;42.10;;;;;;5044720;28;20098;-47
2022/09/23 01:05:16;;;;;;;1.42;1.10;;;21.60;42.10;;;;;;5041632;28;20116;-50
2022/09/23 01:07:42;;;;;;;1.38;1.05;;;21.60;42.10;;;;;;5042687;28;20115;-48
2022/09/23 01:10:12;;;;;;;1.73;1.02;;;21.50;42.10;;;;;;5041909;28;20083;-45
2022/09/23 01:12:41;;;;;;;1.23;1.10;;;21.50;42.10;;;;;;5043955;28;20506;-49
2022/09/23 01:15:31;;;;;;;1.48;1.00;;;21.50;42.10;;;;;;5046433;28;20480;-47
2022/09/23 01:18:33;;;;;;;1.80;0.98;;;21.50;42.10;;;;;;5046573;28;20049;-50
2022/09/23 01:21:21;;;;;;;1.33;0.90;;;21.50;42.10;;;;;;5041258;28;20049;-50
2022/09/23 01:24:25;;;;;;;2.08;0.90;;;21.50;42.10;;;;;;5046815;28;20040;-48
2022/09/23 01:27:18;;;;;;;1.13;1.02;;;21.50;42.10;;;;;;5046767;28;20048;-51
2022/09/23 01:30:05;;;;;;;2.10;1.10;;;21.50;42.10;;;;;;5045094;28;20036;-46
2022/09/23 01:32:55;;;;;;;1.38;0.98;;;21.50;42.20;;;;;;5042339;28;20021;-47
2022/09/23 01:35:39;;;;;;;1.35;1.00;;;21.50;42.20;;;;;;5043892;28;20056;-46
2022/09/23 01:38:30;;;;;;;2.10;1.10;;;21.50;42.20;;;;;;5043522;28;20449;-46
2022/09/23 01:41:08;;;;;;;2.17;1.42;;;21.50;42.20;;;;;;5043550;28;20025;-49
2022/09/23 01:43:46;;;;;;;2.10;1.20;;;21.50;42.30;;;;;;5043951;28;20033;-47
2022/09/23 01:46:19;;;;;;;1.48;1.00;;;21.50;42.30;;;;;;5046624;28;20024;-49
2022/09/23 01:49:16;;;;;;;2.33;1.30;;;21.40;42.30;;;;;;5043124;28;20025;-52
2022/09/23 01:51:48;;;;;;;2.28;1.10;;;21.40;42.30;;;;;;5045216;28;20183;-50
2022/09/23 01:54:21;;;;;;;2.13;1.05;;;21.40;42.50;;;;;;5044704;28;20352;-52
2022/09/23 01:56:52;;;;;;;2.08;1.30;;;21.40;42.40;;;;;;5045643;28;20353;-51
2022/09/23 01:59:36;;;;;;;2.15;1.13;;;21.40;42.40;;;;;;5043846;28;20049;-45
2022/09/23 02:02:04;;;;;;;1.90;1.10;;;21.40;42.40;;;;;;5046043;28;20041;-50
2022/09/23 02:04:52;;;;;;;2.38;1.40;;;21.40;42.40;;;;;;5042330;28;20094;-52
2022/09/23 02:07:38;;;;;;;1.48;1.10;;;21.40;42.40;;;;;;5046621;28;20079;-50
2022/09/23 02:10:40;;;;;;;1.92;1.15;;;21.40;42.40;;;;;;5042811;28;20033;-47
2022/09/23 02:13:19;;;;;;;2.35;1.45;;;21.40;42.50;;;;;;5045547;28;20410;-50
2022/09/23 02:15:49;;;;;;;1.85;1.35;;;21.40;42.50;;;;;;5045053;28;20032;-46
2022/09/23 02:18:21;;;;;;;1.38;1.02;;;21.40;42.60;;;;;;5041855;28;20095;-48
2022/09/23 02:20:51;;;;;;;4.65;1.30;;;21.40;42.60;;;;;;5045847;28;20039;-51
2022/09/23 02:23:31;;;;;;;2.75;1.52;;;21.40;42.60;;;;;;5045307;28;20029;-46
2022/09/23 02:26:18;;;;;;;1.48;1.13;;;21.40;42.60;;;;;;5048343;28;20471;-49
2022/09/23 02:28:46;;;;;;;1.90;1.17;;;21.40;42.60;;;;;;5044261;28;20033;-47
2022/09/23 02:31:26;;;;;;;1.83;1.35;;;21.40;42.60;;;;;;5047766;28;20033;-48
2022/09/23 02:33:58;;;;;;;1.70;1.30;;;21.40;42.60;;;;;;5043311;28;20086;-50
2022/09/23 02:36:30;;;;;;;2.50;1.05;;;21.30;42.60;;;;;;5042802;28;20029;-49
2022/09/23 02:39:01;;;;;;;3.03;1.20;;;21.40;42.60;;;;;;5036936;28;20044;-46
2022/09/23 02:41:37;;;;;;;1.95;1.10;;;21.40;42.60;;;;;;5044510;28;20112;-48
2022/09/23 02:44:10;;;;;;;1.23;0.82;;;21.30;42.60;;;;;;5043639;28;20356;-50
2022/09/23 02:46:37;;;;;;;1.17;0.90;;;21.40;42.70;;;;;;5045148;28;20337;-47
2022/09/23 02:49:26;;;;;;;1.73;1.00;;;21.30;42.60;;;;;;5049031;28;20072;-49
2022/09/23 02:51:53;;;;;;;2.90;1.48;;;21.40;42.70;;;;;;5050913;28;20025;-46
2022/09/23 02:54:24;;;;;;;1.73;1.20;;;21.30;42.60;;;;;;5049402;28;20036;-48
2022/09/23 02:56:52;;;;;;;2.38;1.20;;;21.30;42.60;;;;;;5047021;28;20348;-49
2022/09/23 02:59:20;;;;;;;2.03;1.17;;;21.30;42.70;;;;;;5046273;28;20037;-45
2022/09/23 03:02:16;;;;;;;1.17;1.02;;;21.30;42.70;;;;;;5048102;28;20124;-45
2022/09/23 03:04:57;;;;;;;1.20;1.00;;;21.30;42.70;;;;;;5029125;28;20368;-48
2022/09/23 03:07:35;;;;;;;2.42;1.40;;;21.30;42.70;;;;;;5050346;28;20068;-46
2022/09/23 03:10:16;;;;;;;2.35;1.10;;;21.30;42.70;;;;;;5041231;28;20025;-45
2022/09/23 03:12:47;;;;;;;1.50;1.20;;;21.30;42.70;;;;;;5043570;28;20116;-49
2022/09/23 03:15:21;;;;;;;1.63;1.20;;;21.20;42.70;;;;;;5048189;28;20343;-46
2022/09/23 03:17:58;;;;;;;2.25;1.42;;;21.30;42.70;;;;;;5050954;28;20057;-48
2022/09/23 03:20:36;;;;;;;2.05;1.27;;;21.30;42.70;;;;;;5042808;28;20047;-46
2022/09/23 03:23:07;;;;;;;1.77;1.00;;;21.30;42.80;;;;;;5050742;28;20039;-47
2022/09/23 03:25:37;;;;;;;1.35;0.95;;;21.30;42.70;;;;;;5047024;28;20106;-48
2022/09/23 03:28:07;;;;;;;1.45;0.90;;;21.20;42.70;;;;;;5048167;28;20476;-49
2022/09/23 03:30:37;;;;;;;1.83;1.30;;;21.20;42.70;;;;;;5045575;28;20174;-47
2022/09/23 03:33:06;;;;;;;3.20;1.25;;;21.20;42.70;;;;;;5047121;28;20030;-49
2022/09/23 03:36:48;;;;;;;2.22;1.45;;;21.20;42.70;;;;;;5044981;28;20037;-48
2022/09/23 03:38:25;;;;;;;1.02;0.93;;;21.30;42.70;;;;;;5043030;28;20147;-52
2022/09/23 03:40:54;;;;;;;2.08;1.00;;;21.20;42.60;;;;;;5046783;28;20081;-47
2022/09/23 03:43:20;;;;;;;2.00;1.25;;;21.30;42.70;;;;;;5048685;28;20452;-47
2022/09/23 03:45:46;;;;;;;1.63;1.30;;;21.30;42.70;;;;;;5049154;28;20028;-49
2022/09/23 03:48:15;;;;;;;2.00;1.13;;;21.20;42.60;;;;;;5050915;28;20082;-50
2022/09/23 03:50:41;;;;;;;2.22;1.30;;;21.30;42.60;;;;;;5046548;28;20037;-47
2022/09/23 03:53:07;;;;;;;1.52;1.15;;;21.30;42.60;;;;;;5048455;28;20021;-47
2022/09/23 03:55:33;;;;;;;1.58;1.20;;;21.30;42.60;;;;;;5045826;28;20033;-51
2022/09/23 03:57:59;;;;;;;2.47;1.13;;;21.30;42.70;;;;;;5049479;28;20051;-48
2022/09/23 04:00:26;;;;;;;1.92;1.20;;;21.30;42.70;;;;;;5044913;28;20340;-47
2022/09/23 04:02:51;;;;;;;1.25;1.13;;;21.30;42.70;;;;;;5045681;28;20107;-50
2022/09/23 04:05:17;;;;;;;1.63;1.10;;;21.30;42.60;;;;;;5046203;28;20116;-48
2022/09/23 04:07:43;;;;;;;1.63;1.17;;;21.30;42.60;;;;;;5045263;28;20368;-48
2022/09/23 04:10:09;;;;;;;1.67;1.10;;;21.30;42.60;;;;;;5043890;28;20040;-49
2022/09/23 04:12:36;;;;;;;1.70;1.30;;;21.30;42.60;;;;;;5046991;28;20052;-51
2022/09/23 04:15:02;;;;;;;1.73;1.38;;;21.30;42.50;;;;;;5045955;28;20022;-46
2022/09/23 04:17:29;;;;;;;1.33;1.00;;;21.30;42.50;;;;;;5046452;28;20418;-47
2022/09/23 04:19:54;;;;;;;1.75;1.30;;;21.30;42.50;;;;;;5042237;28;20104;-50
2022/09/23 04:22:20;;;;;;;2.55;1.45;;;21.30;42.50;;;;;;5045511;28;20156;-51
2022/09/23 04:24:47;;;;;;;1.00;0.90;;;21.30;42.50;;;;;;5046772;28;20029;-49
2022/09/23 04:27:13;;;;;;;1.75;1.10;;;21.30;42.50;;;;;;5046452;28;20036;-49
2022/09/23 04:29:39;;;;;;;2.50;1.45;;;21.30;42.80;;;;;;5048493;28;20017;-49
2022/09/23 04:32:04;;;;;;;2.55;1.50;;;21.30;42.50;;;;;;5045453;28;20033;-47
2022/09/23 04:34:30;;;;;;;1.40;1.15;;;21.30;42.50;;;;;;5042159;28;20053;-46
2022/09/23 04:36:56;;;;;;;1.63;1.30;;;21.30;42.50;;;;;;5044520;28;20336;-45
2022/09/23 04:39:22;;;;;;;1.52;1.25;;;21.30;42.50;;;;;;5047983;28;20124;-48
2022/09/23 04:41:47;;;;;;;2.15;1.20;;;21.30;42.50;;;;;;5045622;28;20051;-49
2022/09/23 04:44:14;;;;;;;1.58;1.20;;;21.30;42.50;;;;;;5048352;28;20094;-51
2022/09/23 04:46:41;;;;;;;1.77;1.30;;;21.30;42.50;;;;;;5047255;28;20041;-49
2022/09/23 04:49:07;;;;;;;2.75;1.40;;;21.40;42.60;;;;;;5042272;28;20103;-50
2022/09/23 04:51:33;;;;;;;1.25;1.10;;;21.30;42.50;;;;;;5047551;28;20044;-47
2022/09/23 04:53:59;;;;;;;1.92;1.20;;;21.30;42.50;;;;;;5045020;28;20025;-50
2022/09/23 04:56:27;;;;;;;1.55;1.15;;;21.30;42.50;;;;;;5043967;28;20037;-50
2022/09/23 04:58:56;;;;;;;1.88;1.13;;;21.30;42.50;;;;;;5047842;28;20140;-46
2022/09/23 05:01:25;;;;;;;1.20;1.10;;;21.30;42.50;;;;;;5043711;28;20037;-45
2022/09/23 05:04:02;;;;;;;1.98;1.15;;;21.30;42.50;;;;;;5040817;28;20029;-46
2022/09/23 05:06:30;;;;;;;2.20;1.20;;;21.30;42.50;;;;;;5045241;28;20028;-49
2022/09/23 05:08:57;;;;;;;3.53;1.20;;;21.30;42.50;;;;;;5037849;28;20144;-50
2022/09/23 05:11:24;;;;;;;3.03;1.20;;;21.30;42.50;;;;;;5047292;28;20048;-48
2022/09/23 05:13:52;;;;;;;1.40;1.05;;;21.30;42.50;;;;;;5039631;28;20033;-51
2022/09/23 05:16:18;;;;;;;1.85;1.17;;;21.30;42.50;;;;;;5047641;28;20119;-47
2022/09/23 05:18:45;;;;;;;1.60;1.30;;;21.30;42.50;;;;;;5043420;28;20977;-48
2022/09/23 05:21:14;;;;;;;1.75;1.30;;;21.30;43.10;;;;;;5048237;28;20041;-46
2022/09/23 05:23:40;;;;;;;2.33;1.30;;;21.30;42.50;;;;;;5044747;28;20361;-44
2022/09/23 05:26:09;;;;;;;3.15;1.17;;;21.30;42.50;;;;;;5047373;28;20459;-47
2022/09/23 05:28:38;;;;;;;1.70;1.30;;;21.40;42.60;;;;;;5042373;28;20083;-49
2022/09/23 05:31:21;;;;;;;2.03;1.20;;;21.30;42.50;;;;;;5045772;28;20103;-45
2022/09/23 05:33:52;;;;;;;2.47;1.30;;;21.30;42.50;;;;;;5042574;28;20479;-46
2022/09/23 05:36:22;;;;;;;2.05;1.20;;;21.30;42.60;;;;;;5044074;28;20029;-49
2022/09/23 05:38:49;;;;;;;1.35;1.15;;;21.30;42.60;;;;;;5041201;28;20183;-51
2022/09/23 05:41:19;;;;;;;2.55;1.23;;;21.30;42.70;;;;;;5037365;28;20503;-48
2022/09/23 05:43:46;;;;;;;2.13;1.50;;;21.30;42.70;;;;;;5025950;28;20026;-47
2022/09/23 05:46:17;;;;;;;2.05;1.20;;;21.30;42.70;;;;;;5036119;28;20351;-46
2022/09/23 05:48:47;;;;;;;1.58;1.20;;;21.30;42.70;;;;;;5033568;28;20036;-52
2022/09/23 05:51:18;;;;;;;3.28;1.45;;;21.30;42.70;;;;;;5035035;28;20617;-49
2022/09/23 05:53:46;;;;;;;1.48;1.00;;;21.30;42.90;;;;;;5034495;28;20030;-48
2022/09/23 05:56:16;;;;;;;1.75;1.30;;;21.30;43.20;;;;;;5042158;28;20033;-47
2022/09/23 05:58:44;;;;;;;3.92;1.30;;;21.30;43.20;;;;;;5034392;28;20048;-50
2022/09/23 06:01:13;;;;;;;2.20;1.35;;;21.30;43.10;;;;;;5036005;28;20033;-45
2022/09/23 06:03:40;;;;;;;1.45;1.17;;;21.30;43.00;;;;;;5041513;28;20036;-45
2022/09/23 06:06:13;;;;;;;2.75;1.02;;;21.30;42.90;;;;;;5039045;28;20033;-45
2022/09/23 06:08:48;;;;;;;2.95;1.35;;;21.30;42.90;;;;;;5034006;28;20141;-48
2022/09/23 06:11:14;;;;;;;2.65;1.40;;;21.30;42.80;;;;;;5041895;28;20076;-47
2022/09/23 06:13:40;;;;;;;2.28;1.23;;;21.30;42.80;;;;;;5042630;28;20432;-47
2022/09/23 06:16:14;;;;;;;1.92;1.02;;;21.30;42.90;;;;;;5038789;28;20349;-48
2022/09/23 06:18:44;;;;;;;1.35;1.17;;;21.30;42.90;;;;;;5040273;28;20081;-50
2022/09/23 06:21:15;;;;;;;2.72;1.30;;;21.30;43.00;;;;;;5046290;28;20034;-51
2022/09/23 06:23:42;;;;;;;2.83;1.40;;;21.30;43.00;;;;;;5042233;28;20041;-48
2022/09/23 06:26:12;;;;;;;3.70;1.30;;;21.30;43.10;;;;;;5030239;28;20021;-45
2022/09/23 06:28:39;;;;;;;1.67;1.00;;;21.30;43.10;;;;;;5031036;28;20045;-49
2022/09/23 06:31:10;;;;;;;1.60;1.10;;;21.30;43.20;;;;;;5029368;28;20083;-52
2022/09/23 06:33:36;;;;;;;4.07;1.35;;;21.30;43.30;;;;;;5031727;28;20040;-50
2022/09/23 06:36:06;;;;;;;1.55;1.10;;;21.20;43.20;;;;;;5033126;28;20022;-47
2022/09/23 06:38:35;;;;;;;2.38;1.40;;;21.20;43.30;;;;;;5037504;28;21455;-59
2022/09/23 06:41:02;;;;;;;4.55;1.50;;;21.20;43.30;;;;;;5036094;28;20033;-48
2022/09/23 06:43:28;;;;;;;4.85;1.67;;;21.20;43.20;;;;;;5046787;28;20029;-58
2022/09/23 06:45:56;;;;;;;3.58;1.33;;;21.20;43.10;;;;;;5031412;28;20025;-50
2022/09/23 06:48:23;;;;;;;2.20;1.50;;;21.20;43.10;;;;;;5039360;28;20138;-47
2022/09/23 06:50:50;;;;;;;2.20;1.27;;;21.20;42.90;;;;;;5033129;28;20033;-50
2022/09/23 06:53:16;;;;;;;2.00;1.40;;;21.20;42.90;;;;;;5046334;28;20089;-49
2022/09/23 06:55:42;;;;;;;1.77;1.30;;;21.20;42.80;;;;;;5037622;28;20045;-49
2022/09/23 06:58:09;;;;;;;3.85;1.35;;;21.20;42.80;;;;;;5039132;28;20372;-49
2022/09/23 07:00:35;;;;;;;2.88;1.50;;;21.20;42.80;;;;;;5028566;28;20124;-45
2022/09/23 07:03:06;;;;;;;4.57;1.45;;;21.20;42.90;;;;;;5032335;28;20029;-48
2022/09/23 07:05:33;;;;;;;2.67;1.20;;;21.20;43.00;;;;;;5033025;28;20052;-49
2022/09/23 07:07:59;;;;;;;3.25;1.90;;;21.10;43.00;;;;;;5030651;28;20508;-47
2022/09/23 07:10:29;;;;;;;2.25;1.38;;;21.20;43.00;;;;;;5034278;28;20048;-47
2022/09/23 07:12:59;;;;;;;2.45;1.50;;;21.10;43.00;;;;;;5026025;28;20041;-49
2022/09/23 07:15:25;;;;;;;2.55;1.35;;;21.20;43.10;;;;;;5029327;28;20056;-47
2022/09/23 07:17:51;;;;;;;1.80;1.30;;;21.10;42.90;;;;;;5034663;28;20448;-47
2022/09/23 07:20:17;;;;;;;3.38;1.83;;;21.10;42.90;;;;;;5034567;28;20048;-48
2022/09/23 07:22:47;;;;;;;2.30;1.63;;;21.10;43.10;;;;;;5030506;28;20044;-45
2022/09/23 07:25:13;;;;;;;3.10;1.77;;;21.10;42.90;;;;;;5039108;28;20034;-49
2022/09/23 07:27:39;;;;;;;2.65;1.70;;;21.10;43.00;;;;;;5046222;28;20463;-51
2022/09/23 07:30:05;;;;;;;3.08;1.60;;;21.10;43.20;;;;;;5045151;28;20448;-52
2022/09/23 07:32:31;;;;;;;4.07;2.00;;;21.10;43.30;;;;;;5042794;28;20026;-49
2022/09/23 07:34:57;;;;;;;3.45;1.75;;;21.10;43.40;;;;;;5040412;28;20345;-50
2022/09/23 07:37:23;;;;;;;3.42;2.10;;;21.10;43.50;;;;;;5037198;28;20037;-52
2022/09/23 07:39:49;;;;;;;2.67;1.67;;;21.10;43.50;;;;;;5033681;28;20037;-50
2022/09/23 07:42:16;;;;;;;3.42;2.17;;;21.10;43.50;;;;;;5038442;28;20128;-48
2022/09/23 07:44:46;;;;;;;2.83;1.90;;;21.10;43.50;;;;;;5039751;28;20021;-49
2022/09/23 07:47:13;;;;;;;2.92;1.75;;;21.10;43.40;;;;;;5031548;28;20380;-47
2022/09/23 07:49:39;;;;;;;5.47;2.47;;;21.10;43.40;;;;;;5040498;28;20053;-49
2022/09/23 07:52:04;;;;;;;3.35;2.13;;;21.10;43.40;;;;;;5035598;28;20095;-45
2022/09/23 07:54:31;;;;;;;5.13;2.10;;;21.10;43.40;;;;;;5035485;28;20029;-48
2022/09/23 07:56:58;;;;;;;3.95;2.10;;;21.10;43.40;;;;;;5033541;28;20504;-57
2022/09/23 07:59:25;;;;;;;3.13;1.90;;;21.10;43.40;;;;;;5036414;28;20046;-51
2022/09/23 08:01:52;;;;;;;3.42;2.20;;;21.10;43.50;;;;;;5035584;28;20045;-59
2022/09/23 08:04:30;;;;;;;2.33;1.90;;;21.10;43.60;;;;;;5036017;28;20364;-60
2022/09/23 08:07:01;;;;;;;2.95;1.80;;;21.10;43.90;;;;;;5044740;28;20108;-58
2022/09/23 08:09:33;;;;;;;3.05;1.70;;;21.20;44.10;;;;;;5039370;28;20049;-55
2022/09/23 08:11:59;;;;;;;3.47;2.13;;;21.20;44.10;;;;;;5033696;28;20017;-59
2022/09/23 08:14:26;;;;;;;3.72;1.95;;;21.20;44.00;;;;;;5030999;28;20025;-57
2022/09/23 08:16:52;;;;;;;4.05;2.13;;;21.30;43.90;;;;;;5033520;28;20114;-58
2022/09/23 08:19:19;;;;;;;4.18;2.40;;;21.40;43.80;;;;;;5040677;28;20048;-58
2022/09/23 08:21:46;;;;;;;3.72;2.40;;;21.40;43.60;;;;;;5041559;28;20035;-54
2022/09/23 08:24:15;;;;;;;3.45;2.03;;;21.50;43.40;;;;;;5044138;28;20021;-55
2022/09/23 08:26:41;;;;;;;2.95;1.90;;;21.60;43.20;;;;;;5040549;28;20029;-57
2022/09/23 08:29:10;;;;;;;3.97;2.33;;;21.70;43.00;;;;;;5031620;28;20158;-54
2022/09/23 08:31:35;;;;;;;3.08;1.98;;;21.80;42.80;;;;;;5034222;28;20068;-57
2022/09/23 08:34:02;;;;;;;6.10;2.20;;;21.90;42.70;;;;;;5034790;28;20052;-54
2022/09/23 08:36:27;;;;;;;3.15;1.80;;;21.90;42.50;;;;;;5033212;28;20444;-57
2022/09/23 08:38:54;;;;;;;3.70;1.75;;;22.00;42.40;;;;;;5033809;28;20037;-58
2022/09/23 08:41:52;;;;;;;3.72;1.98;;;22.10;42.20;;;;;;5033643;28;20074;-54
2022/09/23 08:44:30;;;;;;;2.75;1.90;;;22.10;42.10;;;;;;5035479;28;20032;-55
2022/09/23 08:47:12;;;;;;;3.90;1.95;;;22.10;42.50;;;;;;5044388;28;20052;-54
2022/09/23 08:49:52;;;;;;;4.03;1.70;;;22.20;41.80;;;;;;5031121;28;20041;-57
2022/09/23 08:52:51;;;;;;;9.95;2.60;;;22.20;41.70;;;;;;5035128;28;20033;-55
2022/09/23 08:55:21;;;;;;;8.77;3.20;;;22.30;41.80;;;;;;5033391;28;20490;-66
2022/09/23 08:58:20;;;;;;;7.90;2.60;;;22.30;41.80;;;;;;5044562;28;20041;-55
2022/09/23 09:01:16;;;;;;;7.72;2.65;;;22.30;41.30;;;;;;5042194;28;20071;-58
2022/09/23 09:04:14;;;;;;;8.23;2.80;;;22.30;41.30;;;;;;5039405;28;20111;-56
2022/09/23 09:06:47;;;;;;;11.45;3.33;;;22.40;41.50;;;;;;5035338;28;20432;-52
2022/09/23 09:09:31;;;;;;;10.48;4.03;;;22.40;41.60;;;;;;5033888;28;20132;-56
2022/09/23 09:12:21;;;;;;;10.50;3.60;;;22.40;41.70;;;;;;5035183;28;20101;-56
2022/09/23 09:15:08;;;;;;;8.70;3.30;;;22.40;41.70;;;;;;5034171;28;20037;-57
2022/09/23 09:17:35;;;;;;;10.82;3.97;;;22.50;41.80;;;;;;5029328;28;20040;-57
2022/09/23 09:20:22;;;;;;;7.40;2.90;;;22.50;41.80;;;;;;5031887;28;20055;-54
2022/09/23 09:22:56;;;;;;;8.07;3.70;;;22.60;41.70;;;;;;5034258;28;20034;-57
2022/09/23 09:25:24;;;;;;;7.70;2.85;;;22.60;41.70;;;;;;5032659;28;20095;-59
2022/09/23 09:27:51;;;;;;;7.32;2.92;;;22.60;41.70;;;;;;5031804;28;20039;-60
2022/09/23 09:30:18;;;;;;;11.38;3.50;;;22.70;41.80;;;;;;5039053;28;20053;-60
2022/09/23 09:32:58;;;;;;;6.55;2.78;;;22.70;41.70;;;;;;5036268;28;20053;-57
2022/09/23 09:35:32;;;;;;;8.27;2.70;;;22.70;41.60;;;;;;5036375;28;20025;-60
2022/09/23 09:37:57;;;;;;;8.48;2.75;;;22.80;41.50;;;;;;5037572;28;20128;-59
2022/09/23 09:40:25;;;;;;;9.27;2.30;;;22.80;41.40;;;;;;5034125;28;20464;-57
2022/09/23 09:42:51;;;;;;;4.30;2.45;;;22.90;41.40;;;;;;5032043;28;20036;-60
2022/09/23 09:45:47;;;;;;;5.57;2.10;;;22.90;41.20;;;;;;5043953;28;20025;-59
2022/09/23 09:48:49;;;;;;;5.63;2.60;;;22.90;41.10;;;;;;5043908;28;20522;-60
2022/09/23 09:51:22;;;;;;;5.38;2.17;;;22.90;41.00;;;;;;5041575;28;20041;-59
2022/09/23 09:53:51;;;;;;;4.40;1.90;;;22.90;41.00;;;;;;5039837;28;20037;-61
2022/09/23 09:56:21;;;;;;;5.05;2.20;;;23.00;41.00;;;;;;5041505;28;20118;-61
2022/09/23 09:58:55;;;;;;;6.22;2.13;;;23.00;40.90;;;;;;5045493;28;20028;-59
2022/09/23 10:01:30;;;;;;;4.78;2.13;;;23.00;40.90;;;;;;5036940;28;20112;-60
2022/09/23 10:03:58;;;;;;;4.05;2.20;;;23.00;40.80;;;;;;5031376;28;20044;-61
2022/09/23 10:06:26;;;;;;;5.18;2.42;;;23.00;40.80;;;;;;5051479;28;20056;-60
2022/09/23 10:09:09;;;;;;;5.47;2.10;;;23.00;40.90;;;;;;5044598;28;20057;-58
2022/09/23 10:11:36;;;;;;;4.28;1.85;;;23.00;40.90;;;;;;5045625;28;20498;-61
2022/09/23 10:14:17;;;;;;;7.00;2.60;;;23.10;40.90;;;;;;5047347;28;20396;-61
2022/09/23 10:16:45;;;;;;;4.40;1.83;;;23.10;41.00;;;;;;5051823;28;20029;-60
2022/09/23 10:19:28;;;;;;;4.68;1.85;;;23.10;41.00;;;;;;5045964;28;20034;-60
2022/09/23 10:21:59;;;;;;;3.83;1.90;;;23.10;40.90;;;;;;5047974;28;20026;-59
2022/09/23 10:24:36;;;;;;;3.67;2.00;;;23.10;40.90;;;;;;5041535;28;20087;-61
2022/09/23 10:27:07;;;;;;;3.78;1.90;;;23.10;41.00;;;;;;5047701;28;20032;-61
2022/09/23 10:29:48;;;;;;;4.97;2.00;;;23.10;41.00;;;;;;5048929;28;20470;-59
2022/09/23 10:32:37;;;;;;;4.90;2.53;;;23.20;41.10;;;;;;5041431;28;20028;-61
2022/09/23 10:35:10;;;;;;;8.90;2.40;;;23.20;41.20;;;;;;5046099;28;20021;-60
2022/09/23 10:37:41;;;;;;;3.85;2.17;;;23.20;41.10;;;;;;5051195;28;20029;-59
2022/09/23 10:46:40;;;;;;;4.82;1.95;;;23.30;41.10;;;;;;5047700;28;20063;-60
2022/09/23 10:49:37;;;;;;;6.20;2.08;;;23.30;41.10;;;;;;5040585;28;20041;-60
2022/09/23 10:52:16;;;;;;;5.63;2.42;;;23.30;41.10;;;;;;5048481;28;20021;-59
2022/09/23 10:54:44;;;;;;;5.57;1.95;;;23.30;41.00;;;;;;5049817;28;20034;-61
2022/09/23 10:57:41;;;;;;;5.43;1.90;;;23.40;41.10;;;;;;5043249;28;20032;-61
2022/09/23 11:00:36;;;;;;;3.88;1.98;;;23.40;41.00;;;;;;5046956;28;20041;-59
2022/09/23 11:03:08;;;;;;;3.95;1.90;;;23.40;41.00;;;;;;5046488;28;20037;-58
2022/09/23 11:05:55;;;;;;;6.43;2.22;;;23.40;40.90;;;;;;5042191;28;20029;-59
2022/09/23 11:08:55;;;;;;;4.32;2.20;;;23.50;40.90;;;;;;5040994;28;20053;-62
2022/09/23 11:11:33;;;;;;;4.15;1.75;;;23.50;40.80;;;;;;5043944;28;20040;-61
2022/09/23 11:14:31;;;;;;;3.72;1.83;;;23.50;40.80;;;;;;5044486;28;20183;-60
2022/09/23 11:17:27;;;;;;;4.85;1.80;;;23.50;40.60;;;;;;5037824;28;20025;-60
2022/09/23 11:20:27;;;;;;;5.32;1.83;;;23.50;40.60;;;;;;5032191;28;20139;-63
2022/09/23 11:23:32;;;;;;;3.25;1.42;;;23.50;40.50;;;;;;5028770;28;20025;-63
2022/09/23 11:26:36;;;;;;;3.95;1.90;;;23.60;40.40;;;;;;5021840;28;20128;-63
2022/09/23 11:29:28;;;;;;;3.35;1.50;;;23.60;40.40;;;;;;5033028;28;20029;-62
2022/09/23 11:31:57;;;;;;;2.78;1.58;;;23.60;40.30;;;;;;5041487;28;20036;-61
2022/09/23 11:34:44;;;;;;;3.67;1.63;;;23.60;40.30;;;;;;5042786;28;20463;-57
2022/09/23 11:37:39;;;;;;;3.72;1.77;;;23.60;40.20;;;;;;5043646;28;20095;-59
2022/09/23 11:40:14;;;;;;;2.95;1.42;;;23.60;40.20;;;;;;5045496;28;20110;-60
2022/09/23 11:43:07;;;;;;;5.95;1.70;;;23.60;40.20;;;;;;5043781;28;20033;-60
2022/09/23 11:45:44;;;;;;;2.10;1.20;;;23.60;40.20;;;;;;5041402;28;20113;-58
2022/09/23 11:48:20;;;;;;;3.30;1.60;;;23.60;40.10;;;;;;5042370;28;20032;-60
2022/09/23 11:50:58;;;;;;;2.67;1.48;;;23.60;40.10;;;;;;5033979;28;20037;-56
2022/09/23 11:53:46;;;;;;;2.88;1.40;;;23.60;40.10;;;;;;5047774;28;20060;-55
2022/09/23 11:56:27;;;;;;;2.13;1.40;;;23.60;40.00;;;;;;5036093;28;20322;-60
2022/09/23 11:59:17;;;;;;;3.35;1.48;;;23.60;40.00;;;;;;5047003;28;20036;-58
2022/09/23 12:02:02;;;;;;;3.55;1.42;;;23.60;40.00;;;;;;5045966;28;20052;-60
2022/09/23 12:04:38;;;;;;;3.40;1.38;;;23.70;40.00;;;;;;5038078;28;20121;-60
2022/09/23 12:07:07;;;;;;;2.03;1.20;;;23.70;40.00;;;;;;5035365;28;20041;-56
2022/09/23 12:09:55;;;;;;;2.67;1.50;;;23.70;40.00;;;;;;5045549;28;20144;-59
2022/09/23 12:12:36;;;;;;;2.97;1.70;;;23.70;39.90;;;;;;5051401;28;20049;-60
2022/09/23 12:15:12;;;;;;;2.47;1.40;;;23.70;39.90;;;;;;5032586;28;20056;-61
2022/09/23 12:18:13;;;;;;;2.17;1.20;;;23.70;39.90;;;;;;5038221;28;20029;-56
2022/09/23 12:21:03;;;;;;;2.22;1.35;;;23.70;39.90;;;;;;5038604;28;20053;-59
2022/09/23 12:23:38;;;;;;;1.58;1.25;;;23.70;39.90;;;;;;5043777;28;20029;-59
2022/09/23 12:26:11;;;;;;;3.40;1.35;;;23.70;39.80;;;;;;5044618;28;20061;-57
2022/09/23 12:28:44;;;;;;;4.10;1.65;;;23.70;39.80;;;;;;5038223;28;20073;-56
2022/09/23 12:31:13;;;;;;;3.22;1.40;;;23.70;39.70;;;;;;5044582;28;20484;-53
2022/09/23 12:33:47;;;;;;;2.00;1.30;;;23.70;39.70;;;;;;5032879;28;20524;-58
2022/09/23 12:36:13;;;;;;;3.60;1.40;;;23.80;39.80;;;;;;5045129;28;20475;-57
2022/09/23 12:39:11;;;;;;;2.63;1.30;;;23.80;40.00;;;;;;5036382;28;20065;-59
2022/09/23 12:41:46;;;;;;;3.63;1.40;;;23.80;40.00;;;;;;5031059;28;20479;-57
2022/09/23 12:44:14;;;;;;;3.25;1.27;;;23.80;40.00;;;;;;5032321;28;20323;-59
2022/09/23 12:46:46;;;;;;;2.08;1.25;;;23.90;40.10;;;;;;5035250;28;20324;-59
2022/09/23 12:49:27;;;;;;;3.53;1.42;;;24.00;40.00;;;;;;5042023;28;20091;-57
2022/09/23 12:52:17;;;;;;;5.00;1.30;;;24.00;39.90;;;;;;5042313;28;20503;-61
2022/09/23 12:54:45;;;;;;;2.35;1.60;;;24.00;39.80;;;;;;5045504;28;20017;-61
2022/09/23 12:57:33;;;;;;;3.78;1.70;;;24.10;39.70;;;;;;5042523;28;20033;-57
2022/09/23 13:00:08;;;;;;;3.13;1.63;;;24.10;39.60;;;;;;5037260;28;20388;-56
2022/09/23 13:02:36;;;;;;;2.95;1.75;;;24.10;39.40;;;;;;5033950;28;20026;-51
2022/09/23 13:08:04;;;;;;;2.83;1.60;;;24.20;39.20;;;;;;5033316;28;20035;-52
2022/09/23 13:10:56;;;;;;;2.97;1.90;;;24.20;39.10;;;;;;5033872;28;20049;-54
2022/09/23 13:13:30;;;;;;;2.70;1.65;;;24.10;39.00;;;;;;5036318;28;20168;-54
2022/09/23 13:16:21;;;;;;;2.30;1.65;;;24.10;39.00;;;;;;5035957;28;20033;-54
2022/09/23 13:18:57;;;;;;;3.35;1.77;;;24.00;38.90;;;;;;5038519;28;20407;-51
2022/09/23 13:21:41;;;;;;;4.05;2.05;;;24.00;39.00;;;;;;5039109;28;20025;-53
2022/09/23 13:24:23;;;;;;;3.88;2.25;;;23.90;39.00;;;;;;5036306;28;20138;-53
2022/09/23 13:26:53;;;;;;;4.65;1.90;;;23.80;39.00;;;;;;5039068;28;20037;-53
2022/09/23 13:29:36;;;;;;;2.40;1.48;;;23.80;39.10;;;;;;5043759;28;20457;-58